createdAt,value
2024-03-01T00:00:17.439Z,21.00
2024-03-01T00:01:17.569Z,20.90
2024-03-01T00:02:17.412Z,22.00
2024-03-01T00:03:17.371Z,20.50
2024-03-01T00:04:17.398Z,21.20
2024-03-01T00:05:17.388Z,18.80
2024-03-01T00:06:17.348Z,21.20
2024-03-01T00:07:18.327Z,20.00
2024-03-01T00:08:17.336Z,22.60
2024-03-01T00:09:17.329Z,19.40
2024-03-01T00:10:49.139Z,21.00
2024-03-01T00:11:17.302Z,20.50
2024-03-01T00:12:17.297Z,22.60
2024-03-01T00:13:18.005Z,23.20
2024-03-01T00:14:17.341Z,20.30
2024-03-01T00:15:17.264Z,22.20
2024-03-01T00:16:17.337Z,20.60
2024-03-01T00:17:18.052Z,24.80
2024-03-01T00:18:17.199Z,23.10
2024-03-01T00:19:17.253Z,24.00
2024-03-01T00:20:17.229Z,21.90
2024-03-01T00:21:17.180Z,22.90
2024-03-01T00:22:17.877Z,25.50
2024-03-01T00:23:17.171Z,21.70
2024-03-01T00:24:17.380Z,23.50
2024-03-01T00:25:17.169Z,23.90
2024-03-01T00:26:17.112Z,22.20
2024-03-01T00:27:17.909Z,24.10
2024-03-01T00:28:18.115Z,21.10
2024-03-01T00:29:17.113Z,21.20
2024-03-01T00:30:17.102Z,24.10
2024-03-01T00:31:17.118Z,23.00
2024-03-01T00:32:17.946Z,27.60
2024-03-01T00:33:17.084Z,21.60
2024-03-01T00:34:17.100Z,23.80
2024-03-01T00:35:17.021Z,23.20
2024-03-01T00:36:16.999Z,24.70
2024-03-01T00:37:17.095Z,21.50
2024-03-01T00:38:16.993Z,26.30
2024-03-01T00:39:17.015Z,25.80
2024-03-01T00:40:17.014Z,27.60
2024-03-01T00:41:16.955Z,29.10
2024-03-01T00:42:17.207Z,29.80
2024-03-01T00:43:16.958Z,31.00
2024-03-01T00:44:16.903Z,30.10
2024-03-01T00:45:31.181Z,24.20
2024-03-01T00:46:16.918Z,29.80
2024-03-01T00:47:16.917Z,28.30
2024-03-01T00:48:17.712Z,26.20
2024-03-01T00:49:17.703Z,24.20
2024-03-01T00:50:16.903Z,24.40
2024-03-01T00:51:16.843Z,27.10
2024-03-01T00:52:17.582Z,27.00
2024-03-01T00:53:23.581Z,26.30
2024-03-01T00:54:31.345Z,28.10
2024-03-01T00:55:16.816Z,26.60
2024-03-01T00:56:16.776Z,27.20
2024-03-01T00:57:16.816Z,26.80
2024-03-01T00:58:16.859Z,24.30
2024-03-01T00:59:16.896Z,26.10
2024-03-01T01:00:31.475Z,25.00
2024-03-01T01:01:16.802Z,27.20
2024-03-01T01:02:16.834Z,40.70
2024-03-01T01:03:16.717Z,45.50
2024-03-01T01:04:16.723Z,36.90
2024-03-01T01:05:16.705Z,42.50
2024-03-01T01:06:16.712Z,37.60
2024-03-01T01:07:16.801Z,54.20
2024-03-01T01:08:16.757Z,47.30
2024-03-01T01:09:17.460Z,43.80
2024-03-01T01:10:16.986Z,42.90
2024-03-01T01:11:31.489Z,45.20
2024-03-01T01:12:16.638Z,43.30
2024-03-01T01:13:16.676Z,42.40
2024-03-01T01:14:16.592Z,28.30
2024-03-01T01:15:16.673Z,31.60
2024-03-01T01:16:16.684Z,35.80
2024-03-01T01:17:16.591Z,32.00
2024-03-01T01:18:16.555Z,31.70
2024-03-01T01:19:16.641Z,36.10
2024-03-01T01:20:16.530Z,30.80
2024-03-01T01:21:16.513Z,27.90
2024-03-01T01:22:16.549Z,25.90
2024-03-01T01:23:16.491Z,31.20
2024-03-01T01:24:16.504Z,31.40
2024-03-01T01:25:17.229Z,27.00
2024-03-01T01:26:17.010Z,26.60
2024-03-01T01:27:16.465Z,26.40
2024-03-01T01:28:17.270Z,24.50
2024-03-01T01:29:16.441Z,25.60
2024-03-01T01:30:17.258Z,25.80
2024-03-01T01:31:16.628Z,29.00
2024-03-01T01:32:16.394Z,27.80
2024-03-01T01:33:16.443Z,28.60
2024-03-01T01:34:16.369Z,29.70
2024-03-01T01:35:17.294Z,27.90
2024-03-01T01:36:16.347Z,26.50
2024-03-01T01:37:16.366Z,27.70
2024-03-01T01:38:16.382Z,26.70
2024-03-01T01:39:16.358Z,30.90
2024-03-01T01:40:16.348Z,40.20
2024-03-01T01:41:16.289Z,38.90
2024-03-01T01:42:25.549Z,34.90
2024-03-01T01:43:16.281Z,33.90
2024-03-01T01:44:16.247Z,32.80
2024-03-01T01:45:16.228Z,38.60
2024-03-01T01:46:16.266Z,35.40
2024-03-01T01:47:17.175Z,35.40
2024-03-01T01:48:16.236Z,34.80
2024-03-01T01:49:16.239Z,32.80
2024-03-01T01:50:17.673Z,27.50
2024-03-01T01:51:37.160Z,27.60
2024-03-01T01:52:16.210Z,28.60
2024-03-01T01:53:21.291Z,31.30
2024-03-01T01:54:17.142Z,29.20
2024-03-01T01:55:16.159Z,33.80
2024-03-01T01:56:17.126Z,34.20
2024-03-01T01:57:16.118Z,29.70
2024-03-01T01:58:16.127Z,30.30
2024-03-01T01:59:16.143Z,31.30
2024-03-01T02:00:16.946Z,30.80
2024-03-01T02:01:16.093Z,33.30
2024-03-01T02:02:16.055Z,28.50
2024-03-01T02:03:16.078Z,30.40
2024-03-01T02:04:16.031Z,32.20
2024-03-01T02:06:26.710Z,29.40
2024-03-01T02:07:26.725Z,29.50
2024-03-01T02:08:26.687Z,30.60
2024-03-01T02:09:26.680Z,30.30
2024-03-01T02:10:26.707Z,29.80
2024-03-01T02:11:26.659Z,32.40
2024-03-01T02:12:26.675Z,29.10
2024-03-01T02:13:26.736Z,31.40
2024-03-01T02:14:26.916Z,29.40
2024-03-01T02:15:26.613Z,31.90
2024-03-01T02:16:26.620Z,30.40
2024-03-01T02:17:26.602Z,32.00
2024-03-01T02:18:26.736Z,31.70
2024-03-01T02:19:26.664Z,30.30
2024-03-01T02:20:26.545Z,30.60
2024-03-01T02:21:26.509Z,29.40
2024-03-01T02:22:26.537Z,32.60
2024-03-01T02:23:26.489Z,30.20
2024-03-01T02:24:26.509Z,30.80
2024-03-01T02:25:26.564Z,29.90
2024-03-01T02:26:26.481Z,30.40
2024-03-01T02:27:26.455Z,30.80
2024-03-01T02:28:26.543Z,27.60
2024-03-01T02:29:26.520Z,32.60
2024-03-01T02:30:26.422Z,29.60
2024-03-01T02:31:26.477Z,28.20
2024-03-01T02:32:26.424Z,27.00
2024-03-01T02:33:26.387Z,26.90
2024-03-01T02:34:26.647Z,29.20
2024-03-01T02:35:26.440Z,33.30
2024-03-01T02:36:26.363Z,30.80
2024-03-01T02:37:26.440Z,29.60
2024-03-01T02:38:26.338Z,29.80
2024-03-01T02:39:26.345Z,31.00
2024-03-01T02:40:26.360Z,29.80
2024-03-01T02:41:26.293Z,30.20
2024-03-01T02:42:26.292Z,27.60
2024-03-01T02:43:26.341Z,31.00
2024-03-01T02:44:26.268Z,32.20
2024-03-01T02:45:26.254Z,29.90
2024-03-01T02:46:26.302Z,28.20
2024-03-01T02:47:26.258Z,28.80
2024-03-01T02:48:26.265Z,29.20
2024-03-01T02:49:26.263Z,29.00
2024-03-01T02:50:26.236Z,28.20
2024-03-01T02:51:26.200Z,29.10
2024-03-01T02:52:26.264Z,27.70
2024-03-01T02:53:26.169Z,28.70
2024-03-01T02:54:26.474Z,26.20
2024-03-01T02:55:26.361Z,27.30
2024-03-01T02:56:26.192Z,30.70
2024-03-01T02:57:26.136Z,24.10
2024-03-01T02:58:26.176Z,24.70
2024-03-01T02:59:26.119Z,27.20
2024-03-01T03:00:26.132Z,29.40
2024-03-01T03:01:26.215Z,26.50
2024-03-01T03:02:26.092Z,31.60
2024-03-01T03:03:26.083Z,32.80
2024-03-01T03:04:26.118Z,29.30
2024-03-01T03:05:26.061Z,30.50
2024-03-01T03:06:26.054Z,28.30
2024-03-01T03:07:26.039Z,27.00
2024-03-01T03:08:26.175Z,29.90
2024-03-01T03:09:26.003Z,29.90
2024-03-01T03:10:26.037Z,28.70
2024-03-01T03:11:26.012Z,27.60
2024-03-01T03:12:25.974Z,27.70
2024-03-01T03:13:25.961Z,28.90
2024-03-01T03:14:25.941Z,26.20
2024-03-01T03:15:26.057Z,26.50
2024-03-01T03:16:26.108Z,25.60
2024-03-01T03:17:25.937Z,28.70
2024-03-01T03:18:25.929Z,26.50
2024-03-01T03:19:26.270Z,28.30
2024-03-01T03:20:25.914Z,28.60
2024-03-01T03:21:25.901Z,29.60
2024-03-01T03:22:25.910Z,29.60
2024-03-01T03:23:25.876Z,31.30
2024-03-01T03:24:25.858Z,32.30
2024-03-01T03:25:25.889Z,30.80
2024-03-01T03:26:25.806Z,32.60
2024-03-01T03:27:25.809Z,33.20
2024-03-01T03:28:25.816Z,32.40
2024-03-01T03:29:25.798Z,30.70
2024-03-01T03:30:25.775Z,27.90
2024-03-01T03:31:25.862Z,29.10
2024-03-01T03:32:25.801Z,29.80
2024-03-01T03:33:25.727Z,26.40
2024-03-01T03:34:25.786Z,29.80
2024-03-01T03:35:25.832Z,28.70
2024-03-01T03:36:25.961Z,27.00
2024-03-01T03:37:25.779Z,25.20
2024-03-01T03:38:25.680Z,26.20
2024-03-01T03:39:25.677Z,34.40
2024-03-01T03:40:25.706Z,33.10
2024-03-01T03:41:25.646Z,36.90
2024-03-01T03:42:25.649Z,33.90
2024-03-01T03:43:25.640Z,34.60
2024-03-01T03:44:25.619Z,35.10
2024-03-01T03:45:25.611Z,34.80
2024-03-01T03:46:25.768Z,37.10
2024-03-01T03:47:25.582Z,34.30
2024-03-01T03:48:25.582Z,39.70
2024-03-01T03:49:25.567Z,34.10
2024-03-01T03:50:25.544Z,34.70
2024-03-01T03:51:25.531Z,31.40
2024-03-01T03:52:25.633Z,32.50
2024-03-01T03:53:25.517Z,34.20
2024-03-01T03:54:25.494Z,29.80
2024-03-01T03:55:25.542Z,31.80
2024-03-01T03:56:25.781Z,26.90
2024-03-01T03:57:25.702Z,31.70
2024-03-01T03:58:25.564Z,35.50
2024-03-01T03:59:25.475Z,32.90
2024-03-01T04:00:25.419Z,34.20
2024-03-01T04:01:25.478Z,33.50
2024-03-01T04:02:25.395Z,31.00
2024-03-01T04:03:25.411Z,34.10
2024-03-01T04:04:25.408Z,29.40
2024-03-01T04:05:25.442Z,30.90
2024-03-01T04:06:25.357Z,32.90
2024-03-01T04:07:25.397Z,35.30
2024-03-01T04:08:25.381Z,30.50
2024-03-01T04:09:25.316Z,31.80
2024-03-01T04:10:25.326Z,34.40
2024-03-01T04:11:25.312Z,32.90
2024-03-01T04:12:25.315Z,33.20
2024-03-01T04:13:25.330Z,32.60
2024-03-01T04:14:25.265Z,36.10
2024-03-01T04:15:25.289Z,34.40
2024-03-01T04:16:25.743Z,32.30
2024-03-01T04:17:25.324Z,36.00
2024-03-01T04:18:25.226Z,36.30
2024-03-01T04:19:25.229Z,40.70
2024-03-01T04:20:25.244Z,37.70
2024-03-01T04:21:25.184Z,42.10
2024-03-01T04:22:25.286Z,34.90
2024-03-01T04:23:25.173Z,40.50
2024-03-01T04:24:25.182Z,41.90
2024-03-01T04:25:25.223Z,39.90
2024-03-01T04:26:25.127Z,45.10
2024-03-01T04:27:25.113Z,41.20
2024-03-01T04:28:25.150Z,41.60
2024-03-01T04:29:25.102Z,41.80
2024-03-01T04:30:25.096Z,40.20
2024-03-01T04:31:25.114Z,37.10
2024-03-01T04:32:25.083Z,40.90
2024-03-01T04:33:25.085Z,38.70
2024-03-01T04:34:25.079Z,38.40
2024-03-01T04:35:25.022Z,37.20
2024-03-01T04:36:25.017Z,35.10
2024-03-01T04:37:25.292Z,40.60
2024-03-01T04:38:25.014Z,40.50
2024-03-01T04:39:24.993Z,36.30
2024-03-01T04:40:25.024Z,37.40
2024-03-01T04:41:24.984Z,40.60
2024-03-01T04:42:24.952Z,40.50
2024-03-01T04:43:24.948Z,40.10
2024-03-01T04:44:24.977Z,38.00
2024-03-01T04:45:24.920Z,39.90
2024-03-01T04:46:25.002Z,37.60
2024-03-01T04:47:24.976Z,37.70
2024-03-01T04:48:24.896Z,34.00
2024-03-01T04:49:24.942Z,37.50
2024-03-01T04:50:24.872Z,35.90
2024-03-01T04:51:24.890Z,35.20
2024-03-01T04:52:24.904Z,39.10
2024-03-01T04:53:24.855Z,38.70
2024-03-01T04:54:24.824Z,38.30
2024-03-01T04:55:24.900Z,33.70
2024-03-01T04:56:24.821Z,35.00
2024-03-01T04:57:25.507Z,35.20
2024-03-01T04:58:25.019Z,38.10
2024-03-01T04:59:24.794Z,35.00
2024-03-01T05:00:25.070Z,42.20
2024-03-01T05:01:24.958Z,46.00
2024-03-01T05:02:24.747Z,43.10
2024-03-01T05:03:24.725Z,41.40
2024-03-01T05:04:24.772Z,40.80
2024-03-01T05:05:24.695Z,40.70
2024-03-01T05:06:24.716Z,43.00
2024-03-01T05:07:24.786Z,38.80
2024-03-01T05:08:24.730Z,42.70
2024-03-01T05:09:24.660Z,40.50
2024-03-01T05:10:24.801Z,40.80
2024-03-01T05:11:24.712Z,38.90
2024-03-01T05:12:24.629Z,39.60
2024-03-01T05:13:24.660Z,39.80
2024-03-01T05:14:24.595Z,35.90
2024-03-01T05:15:24.603Z,39.20
2024-03-01T05:16:24.694Z,38.20
2024-03-01T05:17:24.574Z,38.40
2024-03-01T05:18:24.638Z,39.20
2024-03-01T05:19:24.619Z,36.40
2024-03-01T05:20:24.581Z,39.10
2024-03-01T05:21:24.533Z,38.00
2024-03-01T05:22:24.619Z,37.60
2024-03-01T05:23:24.524Z,37.00
2024-03-01T05:24:24.550Z,40.90
2024-03-01T05:25:24.508Z,36.80
2024-03-01T05:26:24.498Z,34.40
2024-03-01T05:27:24.505Z,35.70
2024-03-01T05:28:24.455Z,36.50
2024-03-01T05:29:24.471Z,34.40
2024-03-01T05:30:33.066Z,37.10
2024-03-01T05:31:30.390Z,33.90
2024-03-01T05:32:25.634Z,36.60
2024-03-01T05:33:24.436Z,35.00
2024-03-01T05:34:24.408Z,30.50
2024-03-01T05:35:24.380Z,33.90
2024-03-01T05:36:24.416Z,35.90
2024-03-01T05:37:24.387Z,34.80
2024-03-01T05:38:24.381Z,36.40
2024-03-01T05:39:24.474Z,38.80
2024-03-01T05:40:24.372Z,36.90
2024-03-01T05:41:24.315Z,35.40
2024-03-01T05:42:26.434Z,41.30
2024-03-01T05:43:24.904Z,42.50
2024-03-01T05:44:24.292Z,38.40
2024-03-01T05:45:24.330Z,36.70
2024-03-01T05:46:24.261Z,40.10
2024-03-01T05:47:24.261Z,33.70
2024-03-01T05:48:24.226Z,39.60
2024-03-01T05:49:24.451Z,38.20
2024-03-01T05:50:24.212Z,32.70
2024-03-01T05:51:24.212Z,37.50
2024-03-01T05:52:24.280Z,38.80
2024-03-01T05:53:24.165Z,41.40
2024-03-01T05:54:24.171Z,35.90
2024-03-01T05:55:24.251Z,35.30
2024-03-01T05:56:24.139Z,35.60
2024-03-01T05:57:24.152Z,41.50
2024-03-01T05:58:24.369Z,36.00
2024-03-01T05:59:26.094Z,33.50
2024-03-01T06:00:24.181Z,38.00
2024-03-01T06:01:24.221Z,34.70
2024-03-01T06:02:24.075Z,34.40
2024-03-01T06:03:24.092Z,33.30
2024-03-01T06:04:24.069Z,31.10
2024-03-01T06:05:24.059Z,30.70
2024-03-01T06:06:24.056Z,32.60
2024-03-01T06:07:24.062Z,33.60
2024-03-01T06:08:24.070Z,39.40
2024-03-01T06:09:24.002Z,35.80
2024-03-01T06:10:24.205Z,35.20
2024-03-01T06:11:24.062Z,37.90
2024-03-01T06:12:23.971Z,34.50
2024-03-01T06:13:24.021Z,30.60
2024-03-01T06:14:23.946Z,30.50
2024-03-01T06:15:23.936Z,31.50
2024-03-01T06:16:23.976Z,26.80
2024-03-01T06:17:23.929Z,27.60
2024-03-01T06:18:23.901Z,31.70
2024-03-01T06:19:24.164Z,26.90
2024-03-01T06:20:24.146Z,28.20
2024-03-01T06:21:24.331Z,25.70
2024-03-01T06:22:23.891Z,26.90
2024-03-01T06:23:23.834Z,23.20
2024-03-01T06:24:23.830Z,25.90
2024-03-01T06:25:23.969Z,27.40
2024-03-01T06:26:23.809Z,26.40
2024-03-01T06:27:23.837Z,24.00
2024-03-01T06:28:23.825Z,23.20
2024-03-01T06:29:23.807Z,24.60
2024-03-01T06:30:23.786Z,20.50
2024-03-01T06:31:23.869Z,24.30
2024-03-01T06:32:23.778Z,23.70
2024-03-01T06:33:23.842Z,22.30
2024-03-01T06:34:23.754Z,22.00
2024-03-01T06:35:23.790Z,23.00
2024-03-01T06:36:23.706Z,23.20
2024-03-01T06:37:23.740Z,20.60
2024-03-01T06:38:23.736Z,21.40
2024-03-01T06:39:24.043Z,20.00
2024-03-01T06:40:24.678Z,23.00
2024-03-01T06:41:23.663Z,22.30
2024-03-01T06:42:23.633Z,22.30
2024-03-01T06:43:24.219Z,20.00
2024-03-01T06:44:23.641Z,23.00
2024-03-01T06:45:23.624Z,20.90
2024-03-01T06:46:23.591Z,20.80
2024-03-01T06:47:23.678Z,24.80
2024-03-01T06:48:23.586Z,18.20
2024-03-01T06:49:23.634Z,21.90
2024-03-01T06:50:23.583Z,19.80
2024-03-01T06:51:23.543Z,22.70
2024-03-01T06:52:23.809Z,24.70
2024-03-01T06:53:23.507Z,20.20
2024-03-01T06:54:23.531Z,22.90
2024-03-01T06:55:23.522Z,22.30
2024-03-01T06:56:23.489Z,24.60
2024-03-01T06:57:23.498Z,21.80
2024-03-01T06:58:23.482Z,20.70
2024-03-01T06:59:23.494Z,25.50
2024-03-01T07:00:23.586Z,23.70
2024-03-01T07:01:23.461Z,23.50
2024-03-01T07:02:23.432Z,25.20
2024-03-01T07:03:23.390Z,22.90
2024-03-01T07:04:23.420Z,21.20
2024-03-01T07:05:23.364Z,19.90
2024-03-01T07:06:23.367Z,21.40
2024-03-01T07:07:23.359Z,21.30
2024-03-01T07:08:23.336Z,20.20
2024-03-01T07:09:23.382Z,20.70
2024-03-01T07:10:23.357Z,19.20
2024-03-01T07:11:23.324Z,19.40
2024-03-01T07:12:23.276Z,18.00
2024-03-01T07:13:23.506Z,18.70
2024-03-01T07:14:23.300Z,17.00
2024-03-01T07:15:23.253Z,19.50
2024-03-01T07:16:23.307Z,20.70
2024-03-01T07:17:23.301Z,19.30
2024-03-01T07:18:23.223Z,19.40
2024-03-01T07:19:23.213Z,17.90
2024-03-01T07:20:23.261Z,19.30
2024-03-01T07:21:23.444Z,19.70
2024-03-01T07:22:23.615Z,21.90
2024-03-01T07:23:23.203Z,17.20
2024-03-01T07:24:23.243Z,21.10
2024-03-01T07:25:23.257Z,20.70
2024-03-01T07:26:23.113Z,18.40
2024-03-01T07:27:23.125Z,21.90
2024-03-01T07:28:23.160Z,21.10
2024-03-01T07:29:23.099Z,17.90
2024-03-01T07:30:23.096Z,16.60
2024-03-01T07:31:23.113Z,18.50
2024-03-01T07:32:23.603Z,18.10
2024-03-01T07:33:23.071Z,18.00
2024-03-01T07:34:23.244Z,20.40
2024-03-01T07:35:23.050Z,17.30
2024-03-01T07:36:23.059Z,14.80
2024-03-01T07:37:23.068Z,15.60
2024-03-01T07:38:22.981Z,16.70
2024-03-01T07:39:22.995Z,16.80
2024-03-01T07:40:23.397Z,16.00
2024-03-01T07:41:23.368Z,16.60
2024-03-01T07:42:22.952Z,16.60
2024-03-01T07:43:23.079Z,15.80
2024-03-01T07:44:22.955Z,16.80
2024-03-01T07:45:23.045Z,15.80
2024-03-01T07:46:22.964Z,15.60
2024-03-01T07:47:22.944Z,14.30
2024-03-01T07:48:22.879Z,16.50
2024-03-01T07:49:22.906Z,12.80
2024-03-01T07:50:22.902Z,14.60
2024-03-01T07:51:22.851Z,16.70
2024-03-01T07:52:22.832Z,13.80
2024-03-01T07:53:22.849Z,15.20
2024-03-01T07:54:22.830Z,14.90
2024-03-01T07:55:22.907Z,15.70
2024-03-01T07:56:22.779Z,12.60
2024-03-01T07:57:22.855Z,13.10
2024-03-01T07:58:22.958Z,15.70
2024-03-01T07:59:22.812Z,13.60
2024-03-01T08:00:22.790Z,14.10
2024-03-01T08:01:22.865Z,15.10
2024-03-01T08:02:22.808Z,15.10
2024-03-01T08:03:22.825Z,14.60
2024-03-01T08:04:22.813Z,12.50
2024-03-01T08:05:22.724Z,12.90
2024-03-01T08:06:22.687Z,15.30
2024-03-01T08:07:22.704Z,14.00
2024-03-01T08:08:22.674Z,16.80
2024-03-01T08:09:22.665Z,11.90
2024-03-01T08:10:22.763Z,13.80
2024-03-01T08:11:22.660Z,12.60
2024-03-01T08:12:23.554Z,13.50
2024-03-01T08:13:22.605Z,11.30
2024-03-01T08:14:22.618Z,12.40
2024-03-01T08:15:22.588Z,11.20
2024-03-01T08:16:22.593Z,10.90
2024-03-01T08:17:22.567Z,10.70
2024-03-01T08:18:22.609Z,12.00
2024-03-01T08:19:22.605Z,11.30
2024-03-01T08:20:22.556Z,10.20
2024-03-01T08:21:22.587Z,9.40
2024-03-01T08:22:22.598Z,10.10
2024-03-01T08:23:22.726Z,10.50
2024-03-01T08:24:22.493Z,10.40
2024-03-01T08:25:22.528Z,8.90
2024-03-01T08:26:22.466Z,10.00
2024-03-01T08:27:22.448Z,11.40
2024-03-01T08:28:22.495Z,9.90
2024-03-01T08:29:22.445Z,9.60
2024-03-01T08:30:22.400Z,10.10
2024-03-01T08:31:22.731Z,9.50
2024-03-01T08:32:22.400Z,10.30
2024-03-01T08:33:22.439Z,11.20
2024-03-01T08:34:22.479Z,8.70
2024-03-01T08:35:22.361Z,9.70
2024-03-01T08:36:22.329Z,9.30
2024-03-01T08:37:22.435Z,10.90
2024-03-01T08:38:22.329Z,10.40
2024-03-01T08:39:22.317Z,9.50
2024-03-01T08:40:22.379Z,10.40
2024-03-01T08:41:22.277Z,8.70
2024-03-01T08:42:22.657Z,9.70
2024-03-01T08:43:22.299Z,8.70
2024-03-01T08:44:22.318Z,10.00
2024-03-01T08:45:22.266Z,10.30
2024-03-01T08:46:22.266Z,8.80
2024-03-01T08:47:22.215Z,9.20
2024-03-01T08:48:22.227Z,8.30
2024-03-01T08:49:22.257Z,9.30
2024-03-01T08:50:22.207Z,9.20
2024-03-01T08:51:22.186Z,10.50
2024-03-01T08:52:22.262Z,9.60
2024-03-01T08:53:22.154Z,9.00
2024-03-01T08:54:22.169Z,10.00
2024-03-01T08:55:22.195Z,8.70
2024-03-01T08:56:22.320Z,8.60
2024-03-01T08:57:22.131Z,9.10
2024-03-01T08:58:22.132Z,10.00
2024-03-01T08:59:22.096Z,9.50
2024-03-01T09:00:22.131Z,9.80
2024-03-01T09:01:22.127Z,8.80
2024-03-01T09:02:22.380Z,8.80
2024-03-01T09:03:22.525Z,8.50
2024-03-01T09:04:22.359Z,8.90
2024-03-01T09:05:22.017Z,9.60
2024-03-01T09:06:22.002Z,9.30
2024-03-01T09:07:22.061Z,10.50
2024-03-01T09:08:22.001Z,9.40
2024-03-01T09:09:22.042Z,9.50
2024-03-01T09:10:22.015Z,8.00
2024-03-01T09:11:22.010Z,9.70
2024-03-01T09:12:23.333Z,7.40
2024-03-01T09:13:22.007Z,8.60
2024-03-01T09:14:21.927Z,9.50
2024-03-01T09:15:21.914Z,8.10
2024-03-01T09:16:21.988Z,10.70
2024-03-01T09:17:21.883Z,9.10
2024-03-01T09:18:21.905Z,9.70
2024-03-01T09:19:21.940Z,8.00
2024-03-01T09:20:21.888Z,10.60
2024-03-01T09:21:21.849Z,8.90
2024-03-01T09:22:22.040Z,8.60
2024-03-01T09:23:22.437Z,7.80
2024-03-01T09:24:21.910Z,10.70
2024-03-01T09:25:21.825Z,9.50
2024-03-01T09:26:21.806Z,9.60
2024-03-01T09:27:21.821Z,9.60
2024-03-01T09:28:22.069Z,8.80
2024-03-01T09:29:21.756Z,9.60
2024-03-01T09:30:21.779Z,9.90
2024-03-01T09:31:21.809Z,9.60
2024-03-01T09:32:21.760Z,9.50
2024-03-01T09:33:21.778Z,9.80
2024-03-01T09:34:21.786Z,9.20
2024-03-01T09:35:21.703Z,9.20
2024-03-01T09:36:21.717Z,9.60
2024-03-01T09:37:21.767Z,9.40
2024-03-01T09:38:21.791Z,9.70
2024-03-01T09:39:21.637Z,9.80
2024-03-01T09:40:21.726Z,10.00
2024-03-01T09:41:21.610Z,10.90
2024-03-01T09:42:21.635Z,9.90
2024-03-01T09:43:21.785Z,8.10
2024-03-01T09:44:21.651Z,9.70
2024-03-01T09:45:21.583Z,10.00
2024-03-01T09:46:21.602Z,11.80
2024-03-01T09:47:21.565Z,8.90
2024-03-01T09:48:21.581Z,8.60
2024-03-01T09:49:21.561Z,10.50
2024-03-01T09:50:21.532Z,10.90
2024-03-01T09:51:21.498Z,8.70
2024-03-01T09:52:21.781Z,9.50
2024-03-01T09:53:21.480Z,11.30
2024-03-01T09:54:21.474Z,10.30
2024-03-01T09:55:21.559Z,11.20
2024-03-01T09:56:21.482Z,9.20
2024-03-01T09:57:21.741Z,12.40
2024-03-01T09:58:21.488Z,10.80
2024-03-01T09:59:21.429Z,9.60
2024-03-01T10:00:21.416Z,8.80
2024-03-01T10:01:21.510Z,9.50
2024-03-01T10:02:21.430Z,9.80
2024-03-01T10:03:21.371Z,9.30
2024-03-01T10:04:21.846Z,11.50
2024-03-01T10:05:23.518Z,9.40
2024-03-01T10:06:21.408Z,9.30
2024-03-01T10:07:21.437Z,11.30
2024-03-01T10:08:21.376Z,11.90
2024-03-01T10:09:21.306Z,9.20
2024-03-01T10:10:21.397Z,8.90
2024-03-01T10:11:21.340Z,11.20
2024-03-01T10:12:21.663Z,11.30
2024-03-01T10:13:21.360Z,12.10
2024-03-01T10:14:21.256Z,10.40
2024-03-01T10:15:21.254Z,11.20
2024-03-01T10:16:21.263Z,10.60
2024-03-01T10:17:21.782Z,9.60
2024-03-01T10:18:21.204Z,11.10
2024-03-01T10:19:21.255Z,12.20
2024-03-01T10:20:21.223Z,11.80
2024-03-01T10:21:21.169Z,11.60
2024-03-01T10:22:21.311Z,10.20
2024-03-01T10:23:21.165Z,11.60
2024-03-01T10:24:21.362Z,11.00
2024-03-01T10:25:21.282Z,13.20
2024-03-01T10:26:21.152Z,10.60
2024-03-01T10:27:21.100Z,12.80
2024-03-01T10:28:21.125Z,11.10
2024-03-01T10:29:21.122Z,11.40
2024-03-01T10:30:21.125Z,12.10
2024-03-01T10:31:21.091Z,12.90
2024-03-01T10:32:21.060Z,12.10
2024-03-01T10:33:21.110Z,10.50
2024-03-01T10:34:21.180Z,11.40
2024-03-01T10:35:21.043Z,11.60
2024-03-01T10:36:21.035Z,12.30
2024-03-01T10:37:21.070Z,12.80
2024-03-01T10:38:21.013Z,11.80
2024-03-01T10:39:20.988Z,13.50
2024-03-01T10:40:21.026Z,11.30
2024-03-01T10:41:27.286Z,12.20
2024-03-01T10:42:21.974Z,13.00
2024-03-01T10:43:21.044Z,12.10
2024-03-01T10:44:20.916Z,11.10
2024-03-01T10:45:20.968Z,10.60
2024-03-01T10:46:21.038Z,11.60
2024-03-01T10:47:21.145Z,10.80
2024-03-01T10:48:20.932Z,11.20
2024-03-01T10:49:20.893Z,9.00
2024-03-01T10:50:20.896Z,9.80
2024-03-01T10:51:20.872Z,10.60
2024-03-01T10:52:20.983Z,11.50
2024-03-01T10:53:20.862Z,10.40
2024-03-01T10:54:20.859Z,9.90
2024-03-01T10:55:20.851Z,9.30
2024-03-01T10:56:21.132Z,10.60
2024-03-01T10:57:20.798Z,8.80
2024-03-01T10:58:20.814Z,9.10
2024-03-01T10:59:20.753Z,11.80
2024-03-01T11:00:20.787Z,9.90
2024-03-01T11:01:20.830Z,8.90
2024-03-01T11:02:20.800Z,7.50
2024-03-01T11:03:20.736Z,8.50
2024-03-01T11:04:20.696Z,7.80
2024-03-01T11:05:20.689Z,6.90
2024-03-01T11:06:21.046Z,7.30
2024-03-01T11:07:21.105Z,7.50
2024-03-01T11:08:20.672Z,6.50
2024-03-01T11:09:20.652Z,8.50
2024-03-01T11:10:20.728Z,5.40
2024-03-01T11:11:20.641Z,7.40
2024-03-01T11:12:20.635Z,8.60
2024-03-01T11:13:20.646Z,6.30
2024-03-01T11:14:20.604Z,7.90
2024-03-01T11:15:20.574Z,7.20
2024-03-01T11:16:20.580Z,7.50
2024-03-01T11:17:20.590Z,5.80
2024-03-01T11:18:20.607Z,8.20
2024-03-01T11:19:20.591Z,6.00
2024-03-01T11:20:20.741Z,7.70
2024-03-01T11:21:20.505Z,6.50
2024-03-01T11:22:20.643Z,6.90
2024-03-01T11:23:20.494Z,6.00
2024-03-01T11:24:20.478Z,6.00
2024-03-01T11:25:20.545Z,6.40
2024-03-01T11:26:20.888Z,6.20
2024-03-01T11:27:20.626Z,5.80
2024-03-01T11:28:20.488Z,5.40
2024-03-01T11:29:20.469Z,5.50
2024-03-01T11:30:20.493Z,5.90
2024-03-01T11:31:20.441Z,4.40
2024-03-01T11:32:21.105Z,6.40
2024-03-01T11:33:20.456Z,6.30
2024-03-01T11:34:20.402Z,5.50
2024-03-01T11:35:20.438Z,7.40
2024-03-01T11:36:20.384Z,7.10
2024-03-01T11:37:20.406Z,14.10
2024-03-01T11:38:20.328Z,12.90
2024-03-01T11:39:20.312Z,10.50
2024-03-01T11:40:20.316Z,9.80
2024-03-01T11:41:20.292Z,10.70
2024-03-01T11:42:27.056Z,8.10
2024-03-01T11:43:21.283Z,7.40
2024-03-01T11:44:20.251Z,8.30
2024-03-01T11:45:20.272Z,8.00
2024-03-01T11:46:20.604Z,6.60
2024-03-01T11:47:20.251Z,10.30
2024-03-01T11:48:20.205Z,8.50
2024-03-01T11:49:20.246Z,6.80
2024-03-01T11:50:20.216Z,7.00
2024-03-01T11:51:20.159Z,8.40
2024-03-01T11:52:20.246Z,7.80
2024-03-01T11:53:20.174Z,7.10
2024-03-01T11:54:20.144Z,6.50
2024-03-01T11:55:20.244Z,6.10
2024-03-01T11:56:20.148Z,5.00
2024-03-01T11:57:20.137Z,4.40
2024-03-01T11:58:20.146Z,5.40
2024-03-01T11:59:20.178Z,4.10
2024-03-01T12:00:20.093Z,2.80
2024-03-01T12:01:20.115Z,4.00
2024-03-01T12:02:20.176Z,3.10
2024-03-01T12:03:20.054Z,3.10
2024-03-01T12:04:20.073Z,3.10
2024-03-01T12:05:20.131Z,4.70
2024-03-01T12:06:20.017Z,2.60
2024-03-01T12:07:20.435Z,3.20
2024-03-01T12:08:20.518Z,4.10
2024-03-01T12:09:20.045Z,3.10
2024-03-01T12:10:20.000Z,2.30
2024-03-01T12:11:19.983Z,2.30
2024-03-01T12:12:19.926Z,2.40
2024-03-01T12:13:19.973Z,3.60
2024-03-01T12:14:19.933Z,2.10
2024-03-01T12:15:19.888Z,2.60
2024-03-01T12:16:19.911Z,1.50
2024-03-01T12:17:19.866Z,3.00
2024-03-01T12:18:19.883Z,1.30
2024-03-01T12:19:20.063Z,1.10
2024-03-01T12:20:19.964Z,1.20
2024-03-01T12:21:19.842Z,1.00
2024-03-01T12:22:19.865Z,1.70
2024-03-01T12:23:19.871Z,4.40
2024-03-01T12:24:19.853Z,1.40
2024-03-01T12:25:19.883Z,1.60
2024-03-01T12:26:19.781Z,1.80
2024-03-01T12:27:19.876Z,1.50
2024-03-01T12:28:19.846Z,1.90
2024-03-01T12:29:19.751Z,1.30
2024-03-01T12:30:19.757Z,1.60
2024-03-01T12:31:19.774Z,2.30
2024-03-01T12:32:19.722Z,2.60
2024-03-01T12:33:19.719Z,1.30
2024-03-01T12:34:19.686Z,0.80
2024-03-01T12:35:19.776Z,1.60
2024-03-01T12:36:21.108Z,1.30
2024-03-01T12:37:19.694Z,1.70
2024-03-01T12:38:19.636Z,1.40
2024-03-01T12:39:19.778Z,1.80
2024-03-01T12:40:19.869Z,2.60
2024-03-01T12:41:19.620Z,1.60
2024-03-01T12:42:19.585Z,1.80
2024-03-01T12:43:24.455Z,6.30
2024-03-01T12:44:20.584Z,1.70
2024-03-01T12:45:19.648Z,1.50
2024-03-01T12:46:19.634Z,1.90
2024-03-01T12:47:19.581Z,1.60
2024-03-01T12:48:19.543Z,1.20
2024-03-01T12:49:19.598Z,1.50
2024-03-01T12:50:19.515Z,1.50
2024-03-01T12:51:19.503Z,1.40
2024-03-01T12:52:19.604Z,1.90
2024-03-01T12:53:19.481Z,2.30
2024-03-01T12:54:19.470Z,1.10
2024-03-01T12:55:19.547Z,1.40
2024-03-01T12:56:19.451Z,1.80
2024-03-01T12:57:19.430Z,1.40
2024-03-01T12:58:19.427Z,4.60
2024-03-01T12:59:19.406Z,1.60
2024-03-01T13:00:19.395Z,1.00